Time;durP1;ratioP1;P1;durP2;ratioP2;P2;SDS_P1;SDS_P2;PMS_P1;PMS_P2;Temp;Humidity;BMP_temperature;BMP_pressure;BME280_temperature;BME280_humidity;BME280_pressure;Samples;Min_cycle;Max_cycle;Signal;HPM_P1;HPM_P2
2024/01/04 00:01:13;;;;;;;2.25;0.70;;;7.40;99.90;;;;;;5018396;28;20722;-67
2024/01/04 00:03:40;;;;;;;2.92;0.82;;;7.40;99.90;;;;;;5023004;28;20415;-67
2024/01/04 00:06:07;;;;;;;2.05;0.90;;;7.40;99.90;;;;;;5020535;28;20430;-68
2024/01/04 00:08:34;;;;;;;1.50;0.63;;;7.40;99.90;;;;;;5024349;28;20419;-66
2024/01/04 00:11:03;;;;;;;1.85;0.80;;;7.50;99.90;;;;;;5019693;28;20959;-67
2024/01/04 00:13:29;;;;;;;3.40;0.90;;;7.50;99.90;;;;;;5023662;28;20434;-67
2024/01/04 00:15:57;;;;;;;1.88;0.90;;;7.50;99.90;;;;;;5020301;28;20752;-66
2024/01/04 00:18:24;;;;;;;1.60;0.80;;;7.60;99.90;;;;;;5021336;28;20537;-67
2024/01/04 00:20:51;;;;;;;1.80;0.80;;;7.70;99.90;;;;;;5020081;28;20915;-66
2024/01/04 00:23:18;;;;;;;1.90;0.90;;;7.70;99.90;;;;;;5024041;28;20464;-66
2024/01/04 00:25:45;;;;;;;1.80;0.90;;;7.70;99.90;;;;;;5018160;28;20948;-68
2024/01/04 00:28:11;;;;;;;2.63;1.10;;;7.80;99.90;;;;;;5023325;28;20842;-66
2024/01/04 00:30:38;;;;;;;1.90;1.00;;;7.90;99.90;;;;;;5020563;28;20522;-68
2024/01/04 00:33:07;;;;;;;2.85;1.40;;;8.00;99.90;;;;;;5023493;28;20438;-66
2024/01/04 00:35:33;;;;;;;3.63;1.40;;;8.00;99.90;;;;;;5020692;28;20510;-66
2024/01/04 00:38:00;;;;;;;1.95;1.20;;;8.10;99.90;;;;;;5025591;28;20801;-66
2024/01/04 00:40:28;;;;;;;3.00;1.30;;;8.00;99.90;;;;;;5020053;28;20549;-66
2024/01/04 00:42:55;;;;;;;3.58;1.42;;;8.10;99.90;;;;;;5022169;28;20421;-66
2024/01/04 00:45:21;;;;;;;2.95;1.40;;;8.10;99.90;;;;;;5024288;28;20430;-67
2024/01/04 00:47:48;;;;;;;3.40;1.40;;;8.20;99.90;;;;;;5038688;28;20866;-67
2024/01/04 00:50:16;;;;;;;2.58;1.70;;;8.30;99.90;;;;;;5039142;28;20446;-66
2024/01/04 00:52:43;;;;;;;5.30;1.90;;;8.20;99.90;;;;;;5043111;28;20422;-66
2024/01/04 00:55:10;;;;;;;4.60;2.10;;;8.20;99.90;;;;;;5037231;28;20808;-65
2024/01/04 00:57:37;;;;;;;4.13;2.00;;;8.10;99.90;;;;;;5041059;28;20415;-66
2024/01/04 01:00:04;;;;;;;5.40;2.60;;;8.10;99.90;;;;;;5025828;28;20418;-65
2024/01/04 01:02:31;;;;;;;4.57;1.80;;;8.00;99.90;;;;;;5033363;28;20485;-65
2024/01/04 01:04:57;;;;;;;3.50;2.10;;;8.00;99.90;;;;;;5026920;28;20910;-64
2024/01/04 01:07:25;;;;;;;4.97;2.00;;;7.90;99.90;;;;;;5028338;28;20491;-66
2024/01/04 01:09:53;;;;;;;4.80;1.75;;;7.90;99.90;;;;;;5026898;28;20931;-64
2024/01/04 01:12:19;;;;;;;3.47;1.50;;;7.90;99.90;;;;;;5027212;28;20504;-66
2024/01/04 01:14:46;;;;;;;3.90;2.03;;;7.80;99.90;;;;;;5027536;28;20770;-64
2024/01/04 01:17:13;;;;;;;4.68;2.20;;;7.90;99.90;;;;;;5028810;28;20475;-65
2024/01/04 01:19:40;;;;;;;3.20;2.00;;;7.80;99.90;;;;;;5028477;28;20434;-66
2024/01/04 01:22:06;;;;;;;4.80;1.90;;;7.80;99.90;;;;;;5029537;28;20480;-65
2024/01/04 01:24:34;;;;;;;3.72;1.80;;;7.80;99.90;;;;;;5027301;28;20434;-65
2024/01/04 01:27:01;;;;;;;5.53;2.05;;;7.90;99.90;;;;;;5027777;28;20430;-65
2024/01/04 01:29:28;;;;;;;5.72;2.40;;;7.80;99.90;;;;;;5026945;28;20420;-66
2024/01/04 01:31:55;;;;;;;6.18;2.45;;;7.80;99.90;;;;;;5028088;28;20414;-65
2024/01/04 01:34:21;;;;;;;4.63;1.80;;;7.90;99.90;;;;;;5022799;28;20466;-65
2024/01/04 01:36:48;;;;;;;4.15;2.00;;;7.90;99.90;;;;;;5026357;28;20904;-67
2024/01/04 01:39:15;;;;;;;3.90;2.10;;;7.90;99.90;;;;;;5027020;28;20411;-69
2024/01/04 01:41:43;;;;;;;4.60;2.00;;;7.90;99.90;;;;;;5026394;28;20442;-66
2024/01/04 01:44:10;;;;;;;3.10;2.00;;;7.90;99.90;;;;;;5026568;28;20928;-67
2024/01/04 01:46:38;;;;;;;3.28;1.73;;;7.90;99.90;;;;;;5026034;28;20418;-66
2024/01/04 01:49:05;;;;;;;5.40;1.95;;;7.90;99.90;;;;;;5027732;28;20577;-67
2024/01/04 01:51:32;;;;;;;4.10;2.28;;;7.90;99.90;;;;;;5022087;28;20576;-66
2024/01/04 01:53:59;;;;;;;4.85;2.05;;;7.90;99.90;;;;;;5028727;28;20530;-66
2024/01/04 01:56:26;;;;;;;5.28;2.20;;;7.90;99.90;;;;;;5024508;28;20426;-66
2024/01/04 01:58:54;;;;;;;5.00;1.90;;;7.90;99.90;;;;;;5023767;28;20894;-66
2024/01/04 02:01:21;;;;;;;3.20;1.90;;;7.90;99.90;;;;;;5024830;28;20422;-66
2024/01/04 02:03:48;;;;;;;2.85;1.92;;;8.00;99.90;;;;;;5026600;28;20415;-66
2024/01/04 02:06:15;;;;;;;3.17;2.17;;;8.00;99.90;;;;;;5023718;28;20918;-66
2024/01/04 02:08:44;;;;;;;3.67;1.92;;;8.00;99.90;;;;;;5025651;28;20426;-67
2024/01/04 02:11:11;;;;;;;5.65;2.50;;;7.90;99.90;;;;;;5023968;28;20442;-67
2024/01/04 02:13:37;;;;;;;5.25;2.50;;;7.90;99.90;;;;;;5026067;28;20430;-66
2024/01/04 02:16:06;;;;;;;4.15;2.10;;;8.00;99.90;;;;;;5022904;28;20411;-67
2024/01/04 02:18:33;;;;;;;4.80;2.50;;;8.00;99.90;;;;;;5029924;28;20892;-67
2024/01/04 02:21:00;;;;;;;3.45;2.50;;;8.00;99.90;;;;;;5030152;28;20775;-66
2024/01/04 02:23:28;;;;;;;4.40;2.53;;;8.10;99.90;;;;;;5031326;28;20419;-66
2024/01/04 02:25:54;;;;;;;4.20;2.10;;;8.10;99.90;;;;;;5020891;28;20464;-67
2024/01/04 02:28:21;;;;;;;5.35;2.50;;;8.10;99.90;;;;;;5025219;28;20419;-67
2024/01/04 02:30:48;;;;;;;5.57;2.70;;;8.10;99.90;;;;;;5022327;28;20411;-66
2024/01/04 02:33:15;;;;;;;4.95;2.40;;;8.10;99.90;;;;;;5026276;28;20442;-66
2024/01/04 02:35:41;;;;;;;4.43;2.60;;;8.20;99.90;;;;;;5021840;28;20528;-66
2024/01/04 02:38:08;;;;;;;3.58;2.80;;;8.10;99.90;;;;;;5025125;28;20873;-66
2024/01/04 02:40:36;;;;;;;2.45;2.10;;;8.20;99.90;;;;;;5021075;28;20426;-65
2024/01/04 02:43:09;;;;;;;6.97;2.83;;;8.20;99.90;;;;;;5024682;28;20907;-67
2024/01/04 02:45:35;;;;;;;5.03;2.60;;;8.20;99.90;;;;;;5022062;28;20443;-65
2024/01/04 02:48:02;;;;;;;3.58;2.40;;;8.10;99.90;;;;;;5030173;28;20448;-66
2024/01/04 02:50:31;;;;;;;4.73;2.50;;;8.20;99.90;;;;;;5022474;28;20449;-65
2024/01/04 02:52:57;;;;;;;6.95;2.60;;;8.20;99.90;;;;;;5024077;28;20951;-66
2024/01/04 02:55:24;;;;;;;3.47;2.33;;;8.20;99.90;;;;;;5021983;28;20567;-66
2024/01/04 02:57:52;;;;;;;4.60;2.30;;;8.20;99.90;;;;;;5022637;28;20789;-66
2024/01/04 03:00:20;;;;;;;4.88;2.28;;;8.20;99.90;;;;;;5022497;28;20430;-66
2024/01/04 03:02:47;;;;;;;4.57;2.90;;;8.20;99.90;;;;;;5023589;28;20419;-66
2024/01/04 03:05:14;;;;;;;2.90;2.40;;;8.20;99.90;;;;;;5022564;28;20448;-66
2024/01/04 03:07:40;;;;;;;4.57;2.40;;;8.30;99.90;;;;;;5022227;28;20529;-66
2024/01/04 03:10:08;;;;;;;5.53;2.35;;;8.30;99.90;;;;;;5020898;28;20774;-66
2024/01/04 03:12:37;;;;;;;2.55;2.15;;;8.30;99.90;;;;;;5022914;28;20442;-66
2024/01/04 03:15:06;;;;;;;4.45;2.60;;;8.20;99.90;;;;;;5022299;28;20494;-66
2024/01/04 03:17:33;;;;;;;4.70;2.10;;;8.30;99.90;;;;;;5022779;28;20419;-66
2024/01/04 03:20:00;;;;;;;3.77;2.20;;;8.30;99.90;;;;;;5022633;28;20431;-66
2024/01/04 03:22:27;;;;;;;4.10;2.87;;;8.30;99.90;;;;;;5023270;28;20427;-66
2024/01/04 03:24:53;;;;;;;5.40;2.40;;;8.30;99.90;;;;;;5020903;28;20450;-66
2024/01/04 03:27:20;;;;;;;5.22;2.45;;;8.30;99.90;;;;;;5021823;28;20461;-66
2024/01/04 03:29:47;;;;;;;5.85;3.50;;;8.30;99.90;;;;;;5024078;28;20415;-66
2024/01/04 03:32:15;;;;;;;3.25;2.50;;;8.30;99.90;;;;;;5023220;28;20507;-66
2024/01/04 03:34:42;;;;;;;4.15;2.45;;;8.30;99.90;;;;;;5023559;28;20427;-66
2024/01/04 03:37:08;;;;;;;3.13;2.10;;;8.30;99.90;;;;;;5023041;28;21333;-65
2024/01/04 03:39:35;;;;;;;4.60;2.50;;;8.30;99.90;;;;;;5021866;28;20637;-66
2024/01/04 03:42:02;;;;;;;4.72;2.60;;;8.30;99.90;;;;;;5021227;28;20435;-66
2024/01/04 03:44:29;;;;;;;3.63;2.80;;;8.30;99.90;;;;;;5025409;28;20438;-65
2024/01/04 03:46:55;;;;;;;6.47;2.95;;;8.30;99.90;;;;;;5022762;28;20437;-66
2024/01/04 03:49:23;;;;;;;7.47;2.67;;;8.30;99.90;;;;;;5023407;28;20498;-66
2024/01/04 03:51:50;;;;;;;5.15;2.63;;;8.30;99.90;;;;;;5022915;28;20911;-66
2024/01/04 03:54:17;;;;;;;4.23;2.60;;;8.30;99.90;;;;;;5022566;28;20516;-66
2024/01/04 03:56:44;;;;;;;4.40;2.50;;;8.30;99.90;;;;;;5022309;28;20502;-65
2024/01/04 03:59:10;;;;;;;3.25;2.50;;;8.30;99.90;;;;;;5023193;28;20434;-66
2024/01/04 04:01:43;;;;;;;3.08;2.00;;;8.30;99.90;;;;;;5022936;28;20426;-66
2024/01/04 04:04:10;;;;;;;4.40;2.80;;;8.30;99.90;;;;;;5017311;28;20512;-66
2024/01/04 04:06:38;;;;;;;3.17;2.00;;;8.30;99.90;;;;;;5022115;28;20431;-65
2024/01/04 04:09:06;;;;;;;3.78;2.40;;;8.30;99.90;;;;;;5021026;28;20553;-66
2024/01/04 04:11:33;;;;;;;4.13;2.35;;;8.30;99.90;;;;;;5022166;28;20823;-66
2024/01/04 04:14:00;;;;;;;3.70;2.50;;;8.30;99.90;;;;;;5022719;28;20453;-66
2024/01/04 04:16:26;;;;;;;4.00;2.17;;;8.30;99.90;;;;;;5018851;28;20431;-66
2024/01/04 04:18:53;;;;;;;5.00;2.53;;;8.30;99.90;;;;;;5023461;28;20411;-66
2024/01/04 04:21:20;;;;;;;4.60;2.20;;;8.30;99.90;;;;;;5019359;28;20419;-66
2024/01/04 04:23:50;;;;;;;5.95;2.40;;;8.30;99.90;;;;;;5024603;28;20755;-66
2024/01/04 04:26:17;;;;;;;5.40;2.60;;;8.30;99.90;;;;;;5019659;28;20431;-68
2024/01/04 04:28:44;;;;;;;3.38;2.30;;;8.30;99.90;;;;;;5022965;28;20431;-66
2024/01/04 04:31:13;;;;;;;5.47;2.60;;;8.30;99.90;;;;;;5019660;28;20438;-66
2024/01/04 04:33:40;;;;;;;3.67;2.60;;;8.30;99.90;;;;;;5024415;28;20415;-66
2024/01/04 04:36:07;;;;;;;3.87;2.90;;;8.30;99.90;;;;;;5020678;28;20414;-66
2024/01/04 04:38:34;;;;;;;4.20;2.90;;;8.30;99.90;;;;;;5023664;28;20415;-65
2024/01/04 04:41:03;;;;;;;3.80;2.50;;;8.30;99.90;;;;;;5019708;28;20474;-66
2024/01/04 04:43:30;;;;;;;5.80;3.20;;;8.30;99.90;;;;;;5023567;28;20435;-66
2024/01/04 04:45:56;;;;;;;4.57;3.00;;;8.40;99.90;;;;;;5018141;28;20980;-66
2024/01/04 04:48:23;;;;;;;4.00;3.13;;;8.40;99.90;;;;;;5023656;28;20411;-66
2024/01/04 04:50:50;;;;;;;8.65;3.92;;;8.40;99.90;;;;;;5020562;28;20498;-66
2024/01/04 04:53:17;;;;;;;6.85;3.70;;;8.40;99.90;;;;;;5023278;28;20421;-66
2024/01/04 04:55:44;;;;;;;7.55;4.20;;;8.40;99.90;;;;;;5021814;28;20426;-65
2024/01/04 04:58:12;;;;;;;7.00;3.60;;;8.50;99.90;;;;;;5022927;28;20465;-66
2024/01/04 05:00:39;;;;;;;4.05;3.05;;;8.50;99.90;;;;;;5020301;28;20419;-65
2024/01/04 05:03:06;;;;;;;5.35;3.30;;;8.50;99.90;;;;;;5023771;28;20479;-66
2024/01/04 05:05:33;;;;;;;4.65;3.50;;;8.50;99.90;;;;;;5019907;28;20829;-65
2024/01/04 05:08:00;;;;;;;4.93;3.60;;;8.50;99.90;;;;;;5022089;28;20981;-67
2024/01/04 05:10:26;;;;;;;6.30;3.40;;;8.50;99.90;;;;;;5020276;28;20426;-66
2024/01/04 05:12:53;;;;;;;5.72;3.30;;;8.50;99.90;;;;;;5022259;28;20434;-66
2024/01/04 05:15:21;;;;;;;5.00;2.47;;;8.50;99.90;;;;;;5020462;28;20411;-65
2024/01/04 05:17:48;;;;;;;5.63;2.37;;;8.50;99.90;;;;;;5022871;28;20415;-67
2024/01/04 05:20:15;;;;;;;3.03;2.00;;;8.50;99.90;;;;;;5020235;28;20884;-65
2024/01/04 05:22:42;;;;;;;3.10;1.50;;;8.50;99.90;;;;;;5022674;28;20549;-66
2024/01/04 05:25:12;;;;;;;2.50;1.70;;;8.40;99.90;;;;;;5019610;28;20415;-65
2024/01/04 05:27:39;;;;;;;1.73;1.20;;;8.50;99.90;;;;;;5017838;28;20779;-66
2024/01/04 05:30:07;;;;;;;1.98;1.50;;;8.40;99.90;;;;;;5019455;28;20917;-66
2024/01/04 05:32:35;;;;;;;2.38;1.40;;;8.40;99.90;;;;;;5024795;28;20778;-66
2024/01/04 05:35:02;;;;;;;2.30;1.38;;;8.30;99.90;;;;;;5024157;28;20838;-66
2024/01/04 05:37:29;;;;;;;1.25;1.08;;;8.30;99.90;;;;;;5025939;28;20450;-66
2024/01/04 05:39:56;;;;;;;1.80;1.10;;;8.20;99.90;;;;;;5027195;28;20414;-66
2024/01/04 05:42:22;;;;;;;1.90;1.10;;;8.10;99.90;;;;;;5026987;28;21254;-65
2024/01/04 05:44:49;;;;;;;1.25;1.10;;;8.00;99.90;;;;;;5027234;28;20422;-66
2024/01/04 05:47:16;;;;;;;1.95;0.90;;;8.00;99.90;;;;;;5025956;28;20454;-66
2024/01/04 05:49:44;;;;;;;2.15;0.82;;;8.00;99.90;;;;;;5027133;28;20414;-65
2024/01/04 05:52:12;;;;;;;1.90;0.90;;;8.00;99.90;;;;;;5026654;28;20498;-66
2024/01/04 05:54:38;;;;;;;1.48;0.90;;;8.10;99.90;;;;;;5025093;28;20495;-65
2024/01/04 05:57:06;;;;;;;3.05;1.00;;;8.10;99.90;;;;;;5021848;28;20426;-65
2024/01/04 05:59:32;;;;;;;2.60;1.40;;;8.20;99.90;;;;;;5024221;28;22082;-66
2024/01/04 06:01:59;;;;;;;4.00;1.20;;;8.10;99.90;;;;;;5025083;28;20423;-65
2024/01/04 06:04:26;;;;;;;1.80;1.35;;;8.00;99.90;;;;;;5024816;28;20438;-65
2024/01/04 06:06:54;;;;;;;2.05;1.60;;;7.80;99.90;;;;;;5024923;28;20439;-65
2024/01/04 06:09:21;;;;;;;1.45;1.10;;;7.70;99.90;;;;;;5024277;28;20419;-65
2024/01/04 06:11:50;;;;;;;2.15;1.50;;;7.50;99.90;;;;;;5023171;28;20870;-65
2024/01/04 06:14:17;;;;;;;2.10;1.00;;;7.40;99.90;;;;;;5025147;28;20441;-65
2024/01/04 06:16:43;;;;;;;2.10;1.52;;;7.40;99.90;;;;;;5023485;28;20858;-65
2024/01/04 06:19:10;;;;;;;2.38;1.70;;;7.30;99.90;;;;;;5017083;28;20415;-65
2024/01/04 06:21:38;;;;;;;3.88;2.40;;;7.40;99.90;;;;;;5023577;28;20430;-66
2024/01/04 06:24:06;;;;;;;2.90;1.80;;;7.40;99.90;;;;;;5024967;28;20824;-65
2024/01/04 06:26:33;;;;;;;3.20;2.20;;;7.40;99.90;;;;;;5025064;28;20621;-66
2024/01/04 06:28:59;;;;;;;2.90;2.40;;;7.30;99.90;;;;;;5033164;28;20414;-65
2024/01/04 06:31:27;;;;;;;2.80;1.90;;;7.40;99.90;;;;;;5028855;28;20854;-66
2024/01/04 06:33:53;;;;;;;3.58;2.13;;;7.40;99.90;;;;;;5025987;28;20489;-69
2024/01/04 06:36:20;;;;;;;3.28;2.30;;;7.30;99.90;;;;;;5022896;28;20736;-65
2024/01/04 06:38:47;;;;;;;2.95;2.33;;;7.40;99.90;;;;;;5025327;28;20889;-65
2024/01/04 06:41:15;;;;;;;4.93;2.40;;;7.30;99.90;;;;;;5021069;28;20534;-66
2024/01/04 06:43:42;;;;;;;2.55;2.10;;;7.40;99.90;;;;;;5025253;28;20470;-65
2024/01/04 06:46:09;;;;;;;3.47;2.42;;;7.40;99.90;;;;;;5021149;28;20726;-66
2024/01/04 06:48:35;;;;;;;3.80;2.40;;;7.30;99.90;;;;;;5024035;28;20419;-67
2024/01/04 06:51:02;;;;;;;2.60;2.00;;;7.50;99.90;;;;;;5023023;28;20774;-66
2024/01/04 06:53:29;;;;;;;2.80;2.00;;;7.60;99.90;;;;;;5025655;28;20887;-67
2024/01/04 06:55:56;;;;;;;3.33;1.70;;;7.60;99.90;;;;;;5020803;28;20433;-65
2024/01/04 06:58:24;;;;;;;2.33;1.80;;;7.50;99.90;;;;;;5023534;28;20414;-66
2024/01/04 07:00:52;;;;;;;3.70;1.50;;;7.40;99.90;;;;;;5022052;28;20453;-66
2024/01/04 07:03:20;;;;;;;2.30;1.50;;;7.30;99.90;;;;;;5025426;28;20538;-67
2024/01/04 07:05:47;;;;;;;2.08;1.40;;;7.30;99.90;;;;;;5021551;28;20427;-67
2024/01/04 07:08:14;;;;;;;1.90;1.30;;;7.20;99.90;;;;;;5051066;22;20853;-71
2024/01/04 07:10:40;;;;;;;1.90;1.30;;;7.20;99.90;;;;;;5039637;28;20536;-68
2024/01/04 07:13:07;;;;;;;1.90;1.20;;;7.20;99.90;;;;;;5037912;28;20533;-70
2024/01/04 07:15:35;;;;;;;2.10;1.90;;;7.10;99.90;;;;;;5043360;28;20931;-68
2024/01/04 07:18:02;;;;;;;2.17;1.20;;;7.10;99.90;;;;;;5051233;28;20403;-70
2024/01/04 07:20:29;;;;;;;1.70;1.10;;;7.10;99.90;;;;;;5047631;28;21017;-70
2024/01/04 07:22:56;;;;;;;1.70;1.30;;;7.10;99.90;;;;;;5045768;28;20429;-71
2024/01/04 07:25:23;;;;;;;1.50;1.20;;;7.10;99.90;;;;;;5046983;28;20970;-70
2024/01/04 07:27:50;;;;;;;1.90;1.60;;;7.10;99.90;;;;;;5045367;28;20925;-69
2024/01/04 07:30:17;;;;;;;2.67;1.50;;;7.10;99.90;;;;;;5042306;28;20784;-71
2024/01/04 07:32:45;;;;;;;3.63;1.67;;;7.20;99.90;;;;;;5041998;28;20424;-71
2024/01/04 07:35:12;;;;;;;3.65;1.80;;;7.20;99.90;;;;;;5058876;28;20404;-69
2024/01/04 07:37:39;;;;;;;2.22;1.73;;;7.20;99.90;;;;;;5047580;28;20433;-71
2024/01/04 07:40:08;;;;;;;3.90;2.20;;;7.20;99.90;;;;;;5042688;28;20444;-70
2024/01/04 07:42:35;;;;;;;3.80;2.40;;;7.30;99.90;;;;;;5043283;28;20850;-70
2024/01/04 07:45:02;;;;;;;2.97;2.27;;;7.30;99.90;;;;;;5047658;28;21055;-70
2024/01/04 07:47:28;;;;;;;4.30;2.30;;;7.30;99.90;;;;;;5058853;28;20452;-71
2024/01/04 07:49:57;;;;;;;4.25;2.30;;;7.30;99.90;;;;;;5045604;28;20424;-71
2024/01/04 07:52:24;;;;;;;3.53;2.17;;;7.30;99.90;;;;;;5052569;28;20417;-71
2024/01/04 07:54:51;;;;;;;3.03;2.40;;;7.30;99.90;;;;;;5042603;28;20835;-70
2024/01/04 07:57:18;;;;;;;3.00;2.70;;;7.30;99.90;;;;;;5050758;28;20706;-71
2024/01/04 07:59:45;;;;;;;4.00;2.70;;;7.30;99.90;;;;;;5043124;28;20938;-70
2024/01/04 08:02:11;;;;;;;3.10;2.80;;;7.30;99.90;;;;;;5041639;28;20888;-70
2024/01/04 08:04:38;;;;;;;4.13;2.72;;;7.40;99.90;;;;;;5047603;28;20416;-70
2024/01/04 08:07:07;;;;;;;4.97;3.20;;;7.40;99.90;;;;;;5040679;28;20429;-70
2024/01/04 08:09:34;;;;;;;4.90;3.50;;;7.50;99.90;;;;;;5042815;28;20745;-70
2024/01/04 08:12:01;;;;;;;4.97;3.50;;;7.50;99.90;;;;;;5036561;28;20433;-70
2024/01/04 08:14:28;;;;;;;5.95;3.83;;;7.50;99.90;;;;;;5043973;28;20916;-70
2024/01/04 08:16:55;;;;;;;6.22;3.65;;;7.50;99.90;;;;;;5035612;28;20487;-70
2024/01/04 08:19:21;;;;;;;4.82;3.78;;;7.60;99.90;;;;;;5036312;28;20413;-70
2024/01/04 08:21:48;;;;;;;5.18;4.05;;;7.50;99.90;;;;;;5035051;28;20421;-70
2024/01/04 08:24:16;;;;;;;6.35;3.95;;;7.60;99.90;;;;;;5036537;28;20938;-70
2024/01/04 08:26:43;;;;;;;5.95;3.42;;;7.60;99.90;;;;;;5037565;28;20435;-70
2024/01/04 08:29:10;;;;;;;4.75;3.50;;;7.60;99.90;;;;;;5038642;28;20472;-69
2024/01/04 08:31:37;;;;;;;5.53;3.78;;;7.70;99.90;;;;;;5042067;28;20413;-70
2024/01/04 08:34:04;;;;;;;4.47;3.45;;;7.70;99.90;;;;;;5045240;28;20475;-69
2024/01/04 08:36:31;;;;;;;6.60;3.40;;;7.70;99.90;;;;;;5044679;28;20951;-69
2024/01/04 08:38:57;;;;;;;5.30;2.90;;;7.70;99.90;;;;;;5043137;28;20469;-69
2024/01/04 08:41:26;;;;;;;4.93;2.58;;;7.80;99.90;;;;;;5034666;28;20796;-70
2024/01/04 08:43:53;;;;;;;5.45;2.80;;;7.90;99.90;;;;;;5042680;28;20433;-70
2024/01/04 08:46:20;;;;;;;3.25;2.28;;;7.90;99.90;;;;;;5037998;28;20795;-70
2024/01/04 08:48:47;;;;;;;5.30;2.60;;;7.90;99.90;;;;;;5039955;28;20457;-70
2024/01/04 08:51:13;;;;;;;3.63;1.88;;;8.00;99.90;;;;;;5034872;28;20406;-70
2024/01/04 08:53:41;;;;;;;4.57;2.08;;;8.00;99.90;;;;;;5054457;28;20407;-70
2024/01/04 08:56:08;;;;;;;5.13;2.10;;;8.00;99.90;;;;;;5037162;28;20783;-70
2024/01/04 08:58:37;;;;;;;4.07;2.30;;;8.10;99.90;;;;;;5043988;28;20433;-70
2024/01/04 09:01:04;;;;;;;3.40;2.10;;;8.10;99.90;;;;;;5035650;28;20428;-69
2024/01/04 09:03:31;;;;;;;6.13;2.47;;;8.10;99.90;;;;;;5054727;28;20796;-69
2024/01/04 09:05:58;;;;;;;5.40;2.20;;;8.20;99.90;;;;;;5053182;28;20417;-69
2024/01/04 09:08:26;;;;;;;4.13;2.33;;;8.20;99.90;;;;;;5057507;28;20427;-69
2024/01/04 09:10:53;;;;;;;6.50;2.90;;;8.20;99.90;;;;;;5047145;28;20478;-69
2024/01/04 09:13:20;;;;;;;4.25;2.50;;;8.30;99.90;;;;;;5044151;28;20925;-69
2024/01/04 09:15:48;;;;;;;4.38;2.35;;;8.30;99.90;;;;;;5040653;28;20445;-69
2024/01/04 09:18:15;;;;;;;4.90;2.20;;;8.40;99.90;;;;;;5046155;28;20428;-69
2024/01/04 09:20:42;;;;;;;4.93;2.20;;;8.50;99.90;;;;;;5054214;28;20805;-69
2024/01/04 09:23:09;;;;;;;4.00;2.10;;;8.50;99.90;;;;;;5059323;28;20418;-69
2024/01/04 09:25:35;;;;;;;4.78;2.00;;;8.60;99.90;;;;;;5055383;28;20440;-69
2024/01/04 09:28:03;;;;;;;5.15;1.90;;;8.60;99.90;;;;;;5037766;28;20479;-68
2024/01/04 09:30:30;;;;;;;4.68;1.80;;;8.70;99.90;;;;;;5036613;28;20438;-69
2024/01/04 09:32:58;;;;;;;4.28;2.10;;;8.70;99.90;;;;;;5044547;28;20445;-68
2024/01/04 09:35:25;;;;;;;2.65;1.70;;;8.80;99.90;;;;;;5038231;28;20438;-68
2024/01/04 09:37:52;;;;;;;4.00;1.73;;;8.80;99.90;;;;;;5050456;28;20667;-69
2024/01/04 09:40:20;;;;;;;3.30;1.43;;;8.90;99.90;;;;;;5043627;28;20490;-69
2024/01/04 09:42:51;;;;;;;3.58;1.95;;;9.00;99.90;;;;;;5045450;28;20507;-70
2024/01/04 09:45:21;;;;;;;3.40;1.80;;;9.10;99.90;;;;;;5035752;28;20417;-68
2024/01/04 09:47:50;;;;;;;3.20;1.80;;;9.20;99.90;;;;;;5039310;28;20460;-69
2024/01/04 09:50:19;;;;;;;3.10;1.85;;;9.10;99.90;;;;;;5036486;28;20438;-69
2024/01/04 09:52:46;;;;;;;3.47;2.05;;;9.00;99.90;;;;;;5038059;28;20504;-69
2024/01/04 09:55:13;;;;;;;3.05;1.90;;;8.90;99.90;;;;;;5034188;28;20815;-71
2024/01/04 09:57:41;;;;;;;2.95;1.80;;;8.80;99.90;;;;;;5044406;28;20457;-68
2024/01/04 10:00:09;;;;;;;3.65;1.95;;;8.60;99.90;;;;;;5043942;28;20814;-70
2024/01/04 10:02:39;;;;;;;2.50;1.60;;;8.60;99.90;;;;;;5040098;28;20430;-70
2024/01/04 10:05:08;;;;;;;1.63;1.50;;;8.60;99.90;;;;;;5036605;28;20429;-72
2024/01/04 10:07:44;;;;;;;2.00;1.80;;;8.60;99.90;;;;;;5039285;28;20437;-70
2024/01/04 10:10:18;;;;;;;4.20;2.22;;;8.60;99.90;;;;;;5043914;28;20422;-70
2024/01/04 10:12:44;;;;;;;2.95;2.00;;;8.70;99.90;;;;;;5045932;28;20451;-70
2024/01/04 10:15:15;;;;;;;2.40;1.90;;;8.70;99.90;;;;;;5045288;28;20791;-71
2024/01/04 10:17:44;;;;;;;4.35;2.03;;;8.70;99.90;;;;;;5040740;28;20938;-71
2024/01/04 10:20:11;;;;;;;2.22;2.03;;;8.80;99.90;;;;;;5047028;28;20540;-71
2024/01/04 10:22:41;;;;;;;3.47;2.28;;;8.90;99.90;;;;;;5050661;28;20415;-71
2024/01/04 10:25:09;;;;;;;3.87;1.87;;;9.00;99.90;;;;;;5036445;28;20429;-69
2024/01/04 10:27:36;;;;;;;3.85;2.20;;;9.00;99.90;;;;;;5046740;28;20438;-69
2024/01/04 10:30:05;;;;;;;4.03;2.20;;;9.10;99.90;;;;;;5056959;28;20425;-70
2024/01/04 10:32:32;;;;;;;3.55;2.25;;;9.00;99.90;;;;;;5044624;28;20430;-70
2024/01/04 10:35:04;;;;;;;5.20;1.88;;;9.00;99.90;;;;;;5040661;28;20801;-70
2024/01/04 10:37:32;;;;;;;3.70;1.70;;;8.90;99.90;;;;;;5040079;28;20415;-69
2024/01/04 10:40:03;;;;;;;5.03;2.10;;;8.90;99.90;;;;;;5039532;28;20421;-69
2024/01/04 10:42:30;;;;;;;4.88;2.10;;;8.90;99.90;;;;;;5045053;28;20627;-70
2024/01/04 10:44:58;;;;;;;5.95;2.80;;;8.90;99.90;;;;;;5041201;28;20439;-70
2024/01/04 10:47:27;;;;;;;3.42;1.35;;;8.90;99.90;;;;;;5052227;28;20433;-70
2024/01/04 10:49:59;;;;;;;4.05;1.60;;;8.90;99.90;;;;;;5052643;28;20897;-69
2024/01/04 10:52:30;;;;;;;2.47;1.60;;;8.90;99.90;;;;;;5053785;28;20902;-70
2024/01/04 10:55:00;;;;;;;6.85;2.47;;;9.00;99.90;;;;;;5042702;28;20869;-69
2024/01/04 10:57:28;;;;;;;4.73;1.60;;;9.00;99.90;;;;;;5038317;28;20433;-70
2024/01/04 10:59:56;;;;;;;3.22;1.70;;;9.10;99.90;;;;;;5033023;28;20986;-70
2024/01/04 11:02:23;;;;;;;4.60;1.45;;;9.20;99.90;;;;;;5047113;28;20558;-70
2024/01/04 11:04:51;;;;;;;3.40;1.30;;;9.20;99.90;;;;;;5042645;28;20420;-68
2024/01/04 11:07:18;;;;;;;5.78;1.60;;;9.30;99.90;;;;;;5044034;28;20884;-69
2024/01/04 11:09:47;;;;;;;4.65;1.42;;;9.30;99.90;;;;;;5043503;28;20415;-69
2024/01/04 11:12:16;;;;;;;3.97;1.40;;;9.40;99.90;;;;;;5042679;28;20595;-70
2024/01/04 11:14:43;;;;;;;4.65;1.85;;;9.40;99.90;;;;;;5040477;28;20445;-70
2024/01/04 11:17:28;;;;;;;4.97;1.63;;;9.40;99.90;;;;;;5043869;28;20468;-69
2024/01/04 11:20:10;;;;;;;5.20;1.95;;;9.40;99.90;;;;;;5046848;28;20505;-71
2024/01/04 11:23:02;;;;;;;5.40;2.20;;;9.40;99.90;;;;;;5042395;28;20417;-70
2024/01/04 11:25:39;;;;;;;8.45;2.95;;;9.40;99.90;;;;;;5040064;28;20424;-70
2024/01/04 11:28:08;;;;;;;9.18;2.70;;;9.30;99.90;;;;;;5037670;28;20435;-70
2024/01/04 11:30:35;;;;;;;7.47;2.05;;;9.30;99.90;;;;;;5043034;28;20506;-70
2024/01/04 11:33:01;;;;;;;8.20;3.20;;;9.30;99.90;;;;;;5041991;28;20517;-70
2024/01/04 11:35:33;;;;;;;8.18;2.80;;;9.30;99.90;;;;;;5038517;28;20468;-69
2024/01/04 11:38:06;;;;;;;7.13;2.60;;;9.10;99.90;;;;;;5035117;28;20949;-70
2024/01/04 11:40:35;;;;;;;8.93;3.22;;;9.00;99.90;;;;;;5047221;28;20748;-70
2024/01/04 11:43:05;;;;;;;8.35;3.33;;;9.00;99.90;;;;;;5045472;28;20978;-70
2024/01/04 11:45:33;;;;;;;7.78;3.20;;;9.00;99.90;;;;;;5039138;28;20920;-69
2024/01/04 11:48:02;;;;;;;11.50;3.03;;;8.90;99.90;;;;;;5040088;28;20448;-69
2024/01/04 11:50:29;;;;;;;9.90;2.60;;;8.90;99.90;;;;;;5040918;28;20427;-69
2024/01/04 11:53:04;;;;;;;9.88;2.88;;;9.00;99.90;;;;;;5044096;28;20783;-70
2024/01/04 11:55:31;;;;;;;7.32;2.60;;;9.00;99.90;;;;;;5039457;28;20878;-69
2024/01/04 11:58:08;;;;;;;10.30;3.33;;;9.00;99.90;;;;;;5046969;28;20429;-70
2024/01/04 12:00:38;;;;;;;7.57;2.72;;;9.00;99.90;;;;;;5037279;28;20427;-70
2024/01/04 12:03:12;;;;;;;7.10;2.53;;;8.90;99.90;;;;;;5036367;28;20570;-69
2024/01/04 12:05:40;;;;;;;12.07;3.90;;;8.70;99.90;;;;;;5041357;28;20405;-70
2024/01/04 12:08:07;;;;;;;9.15;3.00;;;8.60;99.90;;;;;;5035833;28;20423;-69
2024/01/04 12:10:34;;;;;;;10.03;3.40;;;8.50;99.90;;;;;;5039178;28;20434;-69
2024/01/04 12:13:01;;;;;;;9.30;2.90;;;8.40;99.90;;;;;;5043861;28;20964;-70
2024/01/04 12:15:28;;;;;;;8.35;2.80;;;8.40;99.90;;;;;;5044357;28;20967;-70
2024/01/04 12:17:56;;;;;;;9.02;2.70;;;8.40;99.90;;;;;;5052447;28;20569;-70
2024/01/04 12:20:22;;;;;;;10.13;3.58;;;8.30;99.90;;;;;;5036074;28;20438;-69
2024/01/04 12:22:50;;;;;;;9.60;3.55;;;8.30;99.90;;;;;;5042818;28;20436;-69
2024/01/04 12:25:17;;;;;;;8.73;3.20;;;8.30;99.90;;;;;;5050835;28;20531;-69
2024/01/04 12:27:45;;;;;;;11.05;3.83;;;8.30;99.90;;;;;;5037451;28;20433;-69
2024/01/04 12:30:12;;;;;;;10.00;3.65;;;8.30;99.90;;;;;;5043056;28;20431;-68
2024/01/04 12:32:40;;;;;;;10.20;3.65;;;8.50;99.90;;;;;;5044693;28;20422;-68
2024/01/04 12:35:16;;;;;;;9.77;3.08;;;8.60;99.90;;;;;;5048344;28;20417;-68
2024/01/04 12:37:43;;;;;;;8.15;2.85;;;8.70;99.90;;;;;;5053861;28;20743;-68
2024/01/04 12:40:12;;;;;;;7.50;2.60;;;8.80;99.90;;;;;;5032179;28;20426;-68
2024/01/04 12:42:41;;;;;;;7.00;2.80;;;8.90;99.90;;;;;;5040973;28;20511;-67
2024/01/04 12:45:09;;;;;;;8.90;2.58;;;8.90;99.90;;;;;;5029941;28;20427;-68
2024/01/04 12:47:37;;;;;;;6.95;2.50;;;8.90;99.90;;;;;;5053145;28;20409;-68
2024/01/04 12:50:04;;;;;;;7.93;2.67;;;8.90;99.90;;;;;;5037337;28;20522;-68
2024/01/04 12:52:32;;;;;;;8.77;2.70;;;8.90;99.90;;;;;;5034619;28;20429;-67
2024/01/04 12:54:59;;;;;;;9.30;3.10;;;8.90;99.90;;;;;;5038768;28;20417;-67
2024/01/04 12:57:26;;;;;;;7.50;2.30;;;8.90;99.90;;;;;;5031163;28;20425;-67
2024/01/04 12:59:53;;;;;;;6.65;2.47;;;9.00;99.90;;;;;;5044345;28;20413;-67